sensor_id;sensor_type;location;lat;lon;timestamp;pressure;altitude;pressure_sealevel;temperature;humidity
25759;BME280;13604;52.496;13.456;2023-08-24T00:01:29;101408.41;;;16.73;93.32
25759;BME280;13604;52.496;13.456;2023-08-24T00:03:54;101401.22;;;16.68;93.31
25759;BME280;13604;52.496;13.456;2023-08-24T00:06:19;101419.81;;;16.74;93.08
25759;BME280;13604;52.496;13.456;2023-08-24T00:08:45;101389.59;;;16.60;93.59
25759;BME280;13604;52.496;13.456;2023-08-24T00:11:10;101401.91;;;16.62;93.50
25759;BME280;13604;52.496;13.456;2023-08-24T00:13:41;101395.56;;;16.55;93.69
25759;BME280;13604;52.496;13.456;2023-08-24T00:16:07;101406.38;;;16.65;93.91
25759;BME280;13604;52.496;13.456;2023-08-24T00:18:32;101406.38;;;16.65;93.99
25759;BME280;13604;52.496;13.456;2023-08-24T00:20:58;101395.44;;;16.51;94.44
25759;BME280;13604;52.496;13.456;2023-08-24T00:23:23;101392.69;;;16.48;94.29
25759;BME280;13604;52.496;13.456;2023-08-24T00:25:48;101384.53;;;16.38;94.78
25759;BME280;13604;52.496;13.456;2023-08-24T00:28:14;101391.66;;;16.43;95.39
25759;BME280;13604;52.496;13.456;2023-08-24T00:30:39;101383.47;;;16.32;96.91
25759;BME280;13604;52.496;13.456;2023-08-24T00:33:11;101396.97;;;16.44;97.36
25759;BME280;13604;52.496;13.456;2023-08-24T00:35:37;101393.31;;;16.39;97.79
25759;BME280;13604;52.496;13.456;2023-08-24T00:38:03;101387.69;;;16.27;98.76
25759;BME280;13604;52.496;13.456;2023-08-24T00:40:28;101383.97;;;16.20;100.00
25759;BME280;13604;52.496;13.456;2023-08-24T00:42:53;101389.22;;;16.20;100.00
25759;BME280;13604;52.496;13.456;2023-08-24T00:45:19;101396.34;;;16.24;100.00
25759;BME280;13604;52.496;13.456;2023-08-24T00:47:47;101392.69;;;16.19;100.00
25759;BME280;13604;52.496;13.456;2023-08-24T00:50:13;101380.97;;;16.09;100.00
25759;BME280;13604;52.496;13.456;2023-08-24T00:52:40;101398.91;;;16.23;100.00
25759;BME280;13604;52.496;13.456;2023-08-24T00:55:07;101397.13;;;16.22;100.00
25759;BME280;13604;52.496;13.456;2023-08-24T00:57:37;101397.97;;;16.21;100.00
25759;BME280;13604;52.496;13.456;2023-08-24T01:00:09;101401.34;;;16.16;100.00
25759;BME280;13604;52.496;13.456;2023-08-24T01:02:38;101399.69;;;16.18;100.00
25759;BME280;13604;52.496;13.456;2023-08-24T01:05:04;101390.66;;;16.10;100.00
25759;BME280;13604;52.496;13.456;2023-08-24T01:07:32;101379.22;;;16.10;100.00
25759;BME280;13604;52.496;13.456;2023-08-24T01:09:58;101392.56;;;16.16;100.00
25759;BME280;13604;52.496;13.456;2023-08-24T01:12:48;101374.69;;;16.04;100.00
25759;BME280;13604;52.496;13.456;2023-08-24T01:15:31;101388.03;;;16.10;100.00
25759;BME280;13604;52.496;13.456;2023-08-24T01:18:19;101396.56;;;16.05;100.00
25759;BME280;13604;52.496;13.456;2023-08-24T01:20:47;101389.56;;;16.04;100.00
25759;BME280;13604;52.496;13.456;2023-08-24T01:23:33;101375.50;;;16.03;100.00
25759;BME280;13604;52.496;13.456;2023-08-24T01:26:09;101393.13;;;16.06;100.00
25759;BME280;13604;52.496;13.456;2023-08-24T01:28:36;101385.78;;;15.95;100.00
25759;BME280;13604;52.496;13.456;2023-08-24T01:31:04;101390.13;;;15.95;100.00
25759;BME280;13604;52.496;13.456;2023-08-24T01:33:30;101397.16;;;15.96;100.00
25759;BME280;13604;52.496;13.456;2023-08-24T01:35:56;101380.59;;;15.98;100.00
25759;BME280;13604;52.496;13.456;2023-08-24T01:38:22;101398.38;;;16.06;100.00
25759;BME280;13604;52.496;13.456;2023-08-24T01:43:35;101377.03;;;15.96;100.00
25759;BME280;13604;52.496;13.456;2023-08-24T01:46:05;101376.22;;;15.97;100.00
25759;BME280;13604;52.496;13.456;2023-08-24T01:48:32;101395.59;;;16.01;100.00
25759;BME280;13604;52.496;13.456;2023-08-24T01:51:02;101382.00;;;15.87;100.00
25759;BME280;13604;52.496;13.456;2023-08-24T01:53:33;101389.50;;;16.02;100.00
25759;BME280;13604;52.496;13.456;2023-08-24T01:55:59;101361.16;;;15.93;100.00
25759;BME280;13604;52.496;13.456;2023-08-24T01:58:24;101369.41;;;16.04;100.00
25759;BME280;13604;52.496;13.456;2023-08-24T02:00:50;101382.16;;;16.19;100.00
25759;BME280;13604;52.496;13.456;2023-08-24T02:03:16;101382.13;;;16.17;100.00
25759;BME280;13604;52.496;13.456;2023-08-24T02:05:41;101375.16;;;16.19;100.00
25759;BME280;13604;52.496;13.456;2023-08-24T02:08:07;101357.06;;;16.01;100.00
25759;BME280;13604;52.496;13.456;2023-08-24T02:10:33;101381.22;;;16.17;100.00
25759;BME280;13604;52.496;13.456;2023-08-24T02:12:58;101373.25;;;16.14;100.00
25759;BME280;13604;52.496;13.456;2023-08-24T02:15:24;101367.78;;;16.08;100.00
25759;BME280;13604;52.496;13.456;2023-08-24T02:17:50;101361.81;;;16.13;100.00
25759;BME280;13604;52.496;13.456;2023-08-24T02:20:15;101356.63;;;16.15;100.00
25759;BME280;13604;52.496;13.456;2023-08-24T02:22:41;101370.22;;;16.29;100.00
25759;BME280;13604;52.496;13.456;2023-08-24T02:25:09;101379.28;;;16.38;100.00
25759;BME280;13604;52.496;13.456;2023-08-24T02:27:35;101374.81;;;16.36;100.00
25759;BME280;13604;52.496;13.456;2023-08-24T02:30:00;101364.13;;;16.31;100.00
25759;BME280;13604;52.496;13.456;2023-08-24T02:32:26;101373.34;;;16.46;100.00
25759;BME280;13604;52.496;13.456;2023-08-24T02:34:51;101393.66;;;16.50;100.00
25759;BME280;13604;52.496;13.456;2023-08-24T02:37:16;101382.13;;;16.45;100.00
25759;BME280;13604;52.496;13.456;2023-08-24T02:39:42;101382.44;;;16.55;100.00
25759;BME280;13604;52.496;13.456;2023-08-24T02:42:07;101372.84;;;16.58;100.00
25759;BME280;13604;52.496;13.456;2023-08-24T02:44:32;101380.88;;;16.62;100.00
25759;BME280;13604;52.496;13.456;2023-08-24T02:46:58;101380.25;;;16.71;100.00
25759;BME280;13604;52.496;13.456;2023-08-24T02:49:23;101360.91;;;16.69;100.00
25759;BME280;13604;52.496;13.456;2023-08-24T02:51:49;101370.94;;;16.82;100.00
25759;BME280;13604;52.496;13.456;2023-08-24T02:54:14;101373.84;;;16.90;100.00
25759;BME280;13604;52.496;13.456;2023-08-24T02:56:40;101367.69;;;16.89;100.00
25759;BME280;13604;52.496;13.456;2023-08-24T02:59:06;101368.53;;;16.88;100.00
25759;BME280;13604;52.496;13.456;2023-08-24T03:01:31;101366.94;;;16.93;100.00
25759;BME280;13604;52.496;13.456;2023-08-24T03:03:56;101374.88;;;16.95;100.00
25759;BME280;13604;52.496;13.456;2023-08-24T03:06:22;101373.09;;;16.94;100.00
25759;BME280;13604;52.496;13.456;2023-08-24T03:08:49;101363.28;;;16.88;100.00
25759;BME280;13604;52.496;13.456;2023-08-24T03:11:14;101340.28;;;16.83;100.00
25759;BME280;13604;52.496;13.456;2023-08-24T03:13:39;101347.31;;;16.84;100.00
25759;BME280;13604;52.496;13.456;2023-08-24T03:16:06;101369.88;;;17.04;100.00
25759;BME280;13604;52.496;13.456;2023-08-24T03:18:31;101352.94;;;16.95;100.00
25759;BME280;13604;52.496;13.456;2023-08-24T03:20:56;101375.19;;;17.06;100.00
25759;BME280;13604;52.496;13.456;2023-08-24T03:23:22;101375.34;;;17.10;100.00
25759;BME280;13604;52.496;13.456;2023-08-24T03:25:47;101376.41;;;17.17;100.00
25759;BME280;13604;52.496;13.456;2023-08-24T03:28:13;101376.44;;;17.19;100.00
25759;BME280;13604;52.496;13.456;2023-08-24T03:30:44;101373.06;;;17.24;100.00
25759;BME280;13604;52.496;13.456;2023-08-24T03:33:35;101375.84;;;17.29;99.14
25759;BME280;13604;52.496;13.456;2023-08-24T03:36:04;101371.69;;;17.37;97.91
25759;BME280;13604;52.496;13.456;2023-08-24T03:38:29;101369.09;;;17.39;97.57
25759;BME280;13604;52.496;13.456;2023-08-24T03:41:02;101354.91;;;17.34;96.96
25759;BME280;13604;52.496;13.456;2023-08-24T03:43:31;101358.50;;;17.37;95.87
25759;BME280;13604;52.496;13.456;2023-08-24T03:46:00;101351.28;;;17.30;95.50
25759;BME280;13604;52.496;13.456;2023-08-24T03:48:27;101341.53;;;17.26;94.71
25759;BME280;13604;52.496;13.456;2023-08-24T03:50:56;101356.81;;;17.39;94.23
25759;BME280;13604;52.496;13.456;2023-08-24T03:53:22;101350.78;;;17.43;92.76
25759;BME280;13604;52.496;13.456;2023-08-24T03:55:48;101357.03;;;17.47;91.92
25759;BME280;13604;52.496;13.456;2023-08-24T03:58:15;101330.34;;;17.35;91.22
25759;BME280;13604;52.496;13.456;2023-08-24T04:00:40;101339.25;;;17.40;91.07
25759;BME280;13604;52.496;13.456;2023-08-24T04:03:07;101351.75;;;17.47;91.62
25759;BME280;13604;52.496;13.456;2023-08-24T04:05:33;101347.41;;;17.49;92.12
25759;BME280;13604;52.496;13.456;2023-08-24T04:08:14;101333.16;;;17.41;91.88
25759;BME280;13604;52.496;13.456;2023-08-24T04:10:39;101356.19;;;17.50;91.85
25759;BME280;13604;52.496;13.456;2023-08-24T04:13:05;101346.56;;;17.50;91.75
25759;BME280;13604;52.496;13.456;2023-08-24T04:15:31;101340.09;;;17.37;92.16
25759;BME280;13604;52.496;13.456;2023-08-24T04:18:06;101345.22;;;17.33;92.80
25759;BME280;13604;52.496;13.456;2023-08-24T04:20:31;101354.22;;;17.41;92.51
25759;BME280;13604;52.496;13.456;2023-08-24T04:22:57;101346.28;;;17.39;92.09
25759;BME280;13604;52.496;13.456;2023-08-24T04:25:23;101351.88;;;17.52;91.69
25759;BME280;13604;52.496;13.456;2023-08-24T04:27:48;101354.50;;;17.52;91.28
25759;BME280;13604;52.496;13.456;2023-08-24T04:30:14;101348.25;;;17.48;91.17
25759;BME280;13604;52.496;13.456;2023-08-24T04:32:39;101350.31;;;17.58;90.73
25759;BME280;13604;52.496;13.456;2023-08-24T04:35:05;101329.84;;;17.50;90.11
25759;BME280;13604;52.496;13.456;2023-08-24T04:37:30;101356.44;;;17.59;89.03
25759;BME280;13604;52.496;13.456;2023-08-24T04:39:56;101353.94;;;17.63;89.00
25759;BME280;13604;52.496;13.456;2023-08-24T04:42:21;101346.28;;;17.74;88.86
25759;BME280;13604;52.496;13.456;2023-08-24T04:44:46;101353.44;;;17.78;88.39
25759;BME280;13604;52.496;13.456;2023-08-24T04:47:12;101355.25;;;17.81;88.52
25759;BME280;13604;52.496;13.456;2023-08-24T04:49:37;101351.97;;;17.88;88.20
25759;BME280;13604;52.496;13.456;2023-08-24T04:52:02;101358.88;;;17.86;88.36
25759;BME280;13604;52.496;13.456;2023-08-24T04:54:28;101357.06;;;17.83;88.83
25759;BME280;13604;52.496;13.456;2023-08-24T04:56:53;101337.38;;;17.69;89.19
25759;BME280;13604;52.496;13.456;2023-08-24T04:59:18;101359.53;;;17.77;89.25
25759;BME280;13604;52.496;13.456;2023-08-24T05:01:44;101359.50;;;17.76;89.59
25759;BME280;13604;52.496;13.456;2023-08-24T05:04:09;101362.97;;;17.73;89.39
25759;BME280;13604;52.496;13.456;2023-08-24T05:06:34;101361.38;;;17.80;89.18
25759;BME280;13604;52.496;13.456;2023-08-24T05:08:59;101370.28;;;17.85;89.60
25759;BME280;13604;52.496;13.456;2023-08-24T05:11:27;101352.69;;;17.84;89.40
25759;BME280;13604;52.496;13.456;2023-08-24T05:13:56;101360.94;;;17.96;88.90
25759;BME280;13604;52.496;13.456;2023-08-24T05:16:21;101367.22;;;18.01;87.50
25759;BME280;13604;52.496;13.456;2023-08-24T05:18:46;101365.59;;;18.07;84.63
25759;BME280;13604;52.496;13.456;2023-08-24T05:21:12;101362.16;;;18.11;84.24
25759;BME280;13604;52.496;13.456;2023-08-24T05:23:37;101361.63;;;18.24;83.33
25759;BME280;13604;52.496;13.456;2023-08-24T05:26:03;101369.56;;;18.26;82.72
25759;BME280;13604;52.496;13.456;2023-08-24T05:28:29;101361.59;;;18.23;83.04
25759;BME280;13604;52.496;13.456;2023-08-24T05:30:55;101359.25;;;18.36;83.09
25759;BME280;13604;52.496;13.456;2023-08-24T05:33:21;101369.03;;;18.41;83.07
25759;BME280;13604;52.496;13.456;2023-08-24T05:35:47;101371.19;;;18.60;82.71
25759;BME280;13604;52.496;13.456;2023-08-24T05:38:13;101371.41;;;18.69;82.46
25759;BME280;13604;52.496;13.456;2023-08-24T05:40:39;101354.56;;;18.63;81.75
25759;BME280;13604;52.496;13.456;2023-08-24T05:43:04;101366.59;;;18.89;81.03
25759;BME280;13604;52.496;13.456;2023-08-24T05:45:30;101374.75;;;19.00;80.01
25759;BME280;13604;52.496;13.456;2023-08-24T05:47:55;101365.25;;;19.10;78.61
25759;BME280;13604;52.496;13.456;2023-08-24T05:50:20;101366.53;;;19.30;77.91
25759;BME280;13604;52.496;13.456;2023-08-24T05:52:46;101369.50;;;19.47;77.02
25759;BME280;13604;52.496;13.456;2023-08-24T05:55:11;101369.59;;;19.54;75.06
25759;BME280;13604;52.496;13.456;2023-08-24T05:57:36;101375.00;;;19.60;75.85
25759;BME280;13604;52.496;13.456;2023-08-24T06:00:03;101374.19;;;19.62;77.91
25759;BME280;13604;52.496;13.456;2023-08-24T06:02:29;101358.91;;;19.46;75.21
25759;BME280;13604;52.496;13.456;2023-08-24T06:04:54;101367.06;;;19.60;75.24
25759;BME280;13604;52.496;13.456;2023-08-24T06:07:19;101361.91;;;19.66;75.56
25759;BME280;13604;52.496;13.456;2023-08-24T06:09:46;101360.34;;;19.76;74.60
25759;BME280;13604;52.496;13.456;2023-08-24T06:12:12;101361.16;;;19.75;73.87
25759;BME280;13604;52.496;13.456;2023-08-24T06:14:37;101345.19;;;19.68;75.06
25759;BME280;13604;52.496;13.456;2023-08-24T06:17:02;101361.25;;;19.78;74.93
25759;BME280;13604;52.496;13.456;2023-08-24T06:19:28;101370.31;;;19.92;73.80
25759;BME280;13604;52.496;13.456;2023-08-24T06:21:53;101374.97;;;20.07;76.02
25759;BME280;13604;52.496;13.456;2023-08-24T06:24:19;101374.06;;;20.05;73.99
25759;BME280;13604;52.496;13.456;2023-08-24T06:26:44;101349.31;;;20.03;73.53
25759;BME280;13604;52.496;13.456;2023-08-24T06:29:10;101349.28;;;19.98;72.29
25759;BME280;13604;52.496;13.456;2023-08-24T06:31:35;101371.69;;;20.23;72.44
25759;BME280;13604;52.496;13.456;2023-08-24T06:34:00;101355.91;;;20.28;73.04
25759;BME280;13604;52.496;13.456;2023-08-24T06:36:26;101364.97;;;20.46;71.31
25759;BME280;13604;52.496;13.456;2023-08-24T06:38:51;101341.16;;;20.46;72.24
25759;BME280;13604;52.496;13.456;2023-08-24T06:41:16;101345.75;;;20.60;71.64
25759;BME280;13604;52.496;13.456;2023-08-24T06:43:42;101336.06;;;20.59;70.46
25759;BME280;13604;52.496;13.456;2023-08-24T06:46:07;101338.81;;;20.67;70.83
25759;BME280;13604;52.496;13.456;2023-08-24T06:48:34;101354.00;;;20.82;68.55
25759;BME280;13604;52.496;13.456;2023-08-24T06:50:59;101369.09;;;20.88;68.65
25759;BME280;13604;52.496;13.456;2023-08-24T06:53:24;101358.56;;;20.91;68.06
25759;BME280;13604;52.496;13.456;2023-08-24T06:55:57;101376.28;;;20.98;67.73
25759;BME280;13604;52.496;13.456;2023-08-24T06:58:22;101356.78;;;20.91;67.44
25759;BME280;13604;52.496;13.456;2023-08-24T07:00:48;101369.25;;;21.02;67.69
25759;BME280;13604;52.496;13.456;2023-08-24T07:03:16;101372.00;;;21.09;65.00
25759;BME280;13604;52.496;13.456;2023-08-24T07:05:41;101377.31;;;21.11;65.87
25759;BME280;13604;52.496;13.456;2023-08-24T07:08:06;101364.13;;;21.14;66.78
25759;BME280;13604;52.496;13.456;2023-08-24T07:10:31;101357.06;;;21.16;66.51
25759;BME280;13604;52.496;13.456;2023-08-24T07:12:58;101374.16;;;21.44;66.04
25759;BME280;13604;52.496;13.456;2023-08-24T07:15:23;101367.94;;;21.42;65.24
25759;BME280;13604;52.496;13.456;2023-08-24T07:17:48;101373.44;;;21.58;65.39
25759;BME280;13604;52.496;13.456;2023-08-24T07:20:13;101367.38;;;21.68;64.88
25759;BME280;13604;52.496;13.456;2023-08-24T07:22:39;101375.44;;;21.82;62.88
25759;BME280;13604;52.496;13.456;2023-08-24T07:25:05;101374.66;;;21.95;62.61
25759;BME280;13604;52.496;13.456;2023-08-24T07:27:34;101363.34;;;22.19;61.73
25759;BME280;13604;52.496;13.456;2023-08-24T07:30:00;101375.22;;;22.74;59.52
25759;BME280;13604;52.496;13.456;2023-08-24T07:32:26;101357.72;;;23.18;57.95
25759;BME280;13604;52.496;13.456;2023-08-24T07:34:52;101380.00;;;23.83;56.76
25759;BME280;13604;52.496;13.456;2023-08-24T07:37:18;101359.59;;;24.33;53.76
25759;BME280;13604;52.496;13.456;2023-08-24T07:39:43;101365.75;;;24.67;53.35
25759;BME280;13604;52.496;13.456;2023-08-24T07:42:09;101373.59;;;24.99;51.94
25759;BME280;13604;52.496;13.456;2023-08-24T07:44:34;101352.13;;;25.30;50.68
25759;BME280;13604;52.496;13.456;2023-08-24T07:47:00;101354.47;;;25.78;50.01
25759;BME280;13604;52.496;13.456;2023-08-24T07:49:26;101349.09;;;25.83;49.85
25759;BME280;13604;52.496;13.456;2023-08-24T07:51:51;101372.53;;;26.44;49.63
25759;BME280;13604;52.496;13.456;2023-08-24T07:54:17;101369.34;;;26.92;47.52
25759;BME280;13604;52.496;13.456;2023-08-24T07:56:42;101364.91;;;27.57;44.95
25759;BME280;13604;52.496;13.456;2023-08-24T07:59:08;101360.81;;;27.90;43.48
25759;BME280;13604;52.496;13.456;2023-08-24T08:01:35;101361.63;;;28.43;42.53
25759;BME280;13604;52.496;13.456;2023-08-24T08:04:01;101356.44;;;28.81;41.91
25759;BME280;13604;52.496;13.456;2023-08-24T08:06:26;101364.47;;;29.25;41.03
25759;BME280;13604;52.496;13.456;2023-08-24T08:08:52;101341.59;;;29.46;39.12
25759;BME280;13604;52.496;13.456;2023-08-24T08:11:18;101358.19;;;29.63;39.46
25759;BME280;13604;52.496;13.456;2023-08-24T08:13:44;101372.22;;;29.37;39.92
25759;BME280;13604;52.496;13.456;2023-08-24T08:16:10;101367.97;;;29.66;39.29
25759;BME280;13604;52.496;13.456;2023-08-24T08:18:36;101369.31;;;29.85;40.08
25759;BME280;13604;52.496;13.456;2023-08-24T08:21:15;101358.59;;;29.85;39.23
25759;BME280;13604;52.496;13.456;2023-08-24T08:23:44;101361.88;;;29.95;39.19
25759;BME280;13604;52.496;13.456;2023-08-24T08:26:15;101366.22;;;30.01;38.15
25759;BME280;13604;52.496;13.456;2023-08-24T08:28:41;101349.84;;;29.76;38.06
25759;BME280;13604;52.496;13.456;2023-08-24T08:31:06;101355.66;;;29.95;37.75
25759;BME280;13604;52.496;13.456;2023-08-24T08:33:32;101345.31;;;29.42;38.18
25759;BME280;13604;52.496;13.456;2023-08-24T08:35:57;101348.84;;;28.59;39.33
25759;BME280;13604;52.496;13.456;2023-08-24T08:38:23;101348.31;;;27.89;40.36
25759;BME280;13604;52.496;13.456;2023-08-24T08:40:56;101344.53;;;27.48;42.97
25759;BME280;13604;52.496;13.456;2023-08-24T08:43:22;101342.19;;;27.23;43.83
25759;BME280;13604;52.496;13.456;2023-08-24T08:45:51;101337.09;;;27.06;43.92
25759;BME280;13604;52.496;13.456;2023-08-24T08:48:18;101325.66;;;26.96;44.29
25759;BME280;13604;52.496;13.456;2023-08-24T08:50:48;101324.88;;;26.87;43.48
25759;BME280;13604;52.496;13.456;2023-08-24T08:53:14;101326.56;;;26.92;44.23
25759;BME280;13604;52.496;13.456;2023-08-24T08:55:41;101320.34;;;26.93;44.66
25759;BME280;13604;52.496;13.456;2023-08-24T08:58:10;101328.66;;;26.72;44.00
25759;BME280;13604;52.496;13.456;2023-08-24T09:00:36;101336.78;;;26.58;45.14
25759;BME280;13604;52.496;13.456;2023-08-24T09:03:02;101329.63;;;26.61;45.29
25759;BME280;13604;52.496;13.456;2023-08-24T09:05:30;101326.03;;;26.67;45.49
25759;BME280;13604;52.496;13.456;2023-08-24T09:07:56;101319.81;;;26.65;44.27
25759;BME280;13604;52.496;13.456;2023-08-24T09:10:25;101328.72;;;26.61;44.33
25759;BME280;13604;52.496;13.456;2023-08-24T09:12:57;101319.63;;;25.98;45.53
25759;BME280;13604;52.496;13.456;2023-08-24T09:15:26;101315.03;;;26.13;46.17
25759;BME280;13604;52.496;13.456;2023-08-24T09:17:53;101319.53;;;26.87;44.38
25759;BME280;13604;52.496;13.456;2023-08-24T09:20:20;101317.41;;;27.71;42.41
25759;BME280;13604;52.496;13.456;2023-08-24T09:22:46;101317.59;;;29.00;41.08
25759;BME280;13604;52.496;13.456;2023-08-24T09:25:14;101311.31;;;28.61;38.85
25759;BME280;13604;52.496;13.456;2023-08-24T09:27:40;101317.09;;;28.39;39.67
25759;BME280;13604;52.496;13.456;2023-08-24T09:30:07;101306.81;;;28.16;40.41
25759;BME280;13604;52.496;13.456;2023-08-24T09:32:35;101305.28;;;28.03;40.68
25759;BME280;13604;52.496;13.456;2023-08-24T09:35:04;101301.59;;;28.08;41.17
25759;BME280;13604;52.496;13.456;2023-08-24T09:37:37;101291.13;;;29.26;39.62
25759;BME280;13604;52.496;13.456;2023-08-24T09:40:07;101294.44;;;32.34;35.41
25759;BME280;13604;52.496;13.456;2023-08-24T09:42:40;101287.16;;;34.74;30.99
25759;BME280;13604;52.496;13.456;2023-08-24T09:45:07;101288.63;;;36.42;28.61
25759;BME280;13604;52.496;13.456;2023-08-24T09:47:35;101290.81;;;35.65;27.40
25759;BME280;13604;52.496;13.456;2023-08-24T09:50:01;101292.88;;;35.95;27.75
25759;BME280;13604;52.496;13.456;2023-08-24T09:52:31;101289.97;;;36.82;25.91
25759;BME280;13604;52.496;13.456;2023-08-24T09:55:05;101294.47;;;37.31;25.72
25759;BME280;13604;52.496;13.456;2023-08-24T09:57:36;101283.72;;;38.05;24.30
25759;BME280;13604;52.496;13.456;2023-08-24T10:00:04;101274.00;;;35.59;26.50
25759;BME280;13604;52.496;13.456;2023-08-24T10:02:36;101269.06;;;37.32;27.92
25759;BME280;13604;52.496;13.456;2023-08-24T10:05:02;101270.13;;;39.04;24.77
25759;BME280;13604;52.496;13.456;2023-08-24T10:07:30;101281.88;;;40.51;22.81
25759;BME280;13604;52.496;13.456;2023-08-24T10:10:03;101271.97;;;41.35;21.21
25759;BME280;13604;52.496;13.456;2023-08-24T10:12:32;101272.41;;;41.53;22.01
25759;BME280;13604;52.496;13.456;2023-08-24T10:15:02;101270.84;;;41.13;20.66
25759;BME280;13604;52.496;13.456;2023-08-24T10:17:29;101259.75;;;40.79;21.48
25759;BME280;13604;52.496;13.456;2023-08-24T10:19:55;101270.06;;;41.24;20.27
25759;BME280;13604;52.496;13.456;2023-08-24T10:22:21;101269.88;;;41.38;20.42
25759;BME280;13604;52.496;13.456;2023-08-24T10:24:47;101272.25;;;40.95;20.84
25759;BME280;13604;52.496;13.456;2023-08-24T10:27:14;101278.06;;;41.38;21.16
25759;BME280;13604;52.496;13.456;2023-08-24T10:29:39;101269.72;;;42.22;20.72
25759;BME280;13604;52.496;13.456;2023-08-24T10:32:05;101259.41;;;42.26;20.20
25759;BME280;13604;52.496;13.456;2023-08-24T10:34:32;101261.59;;;41.51;21.06
25759;BME280;13604;52.496;13.456;2023-08-24T10:49:44;101272.06;;;41.93;nan
25759;BME280;13604;52.496;13.456;2023-08-24T10:52:37;101264.94;;;43.04;nan
25759;BME280;13604;52.496;13.456;2023-08-24T10:55:05;101268.44;;;43.80;nan
25759;BME280;13604;52.496;13.456;2023-08-24T10:58:00;101264.81;;;44.01;nan
25759;BME280;13604;52.496;13.456;2023-08-24T11:02:44;101261.59;;;43.21;19.41
25759;BME280;13604;52.496;13.456;2023-08-24T11:07:59;101256.22;;;42.87;19.52
25759;BME280;13604;52.496;13.456;2023-08-24T11:10:31;101236.28;;;43.82;19.29
25759;BME280;13604;52.496;13.456;2023-08-24T11:13:18;101236.84;;;44.07;19.50
25759;BME280;13604;52.496;13.456;2023-08-24T11:15:50;101234.59;;;43.91;18.91
25759;BME280;13604;52.496;13.456;2023-08-24T11:18:27;101283.88;;;44.23;19.17
25759;BME280;13604;52.496;13.456;2023-08-24T11:20:56;101217.88;;;44.25;17.94
25759;BME280;13604;52.496;13.456;2023-08-24T11:23:24;101216.75;;;44.97;17.98
25759;BME280;13604;52.496;13.456;2023-08-24T11:25:52;101214.38;;;43.29;19.19
25759;BME280;13604;52.496;13.456;2023-08-24T11:28:22;101204.13;;;43.73;19.03
25759;BME280;13604;52.496;13.456;2023-08-24T11:30:48;101215.66;;;44.69;18.14
25759;BME280;13604;52.496;13.456;2023-08-24T11:33:14;101213.69;;;45.20;17.37
25759;BME280;13604;52.496;13.456;2023-08-24T11:35:44;101207.75;;;46.01;17.48
25759;BME280;13604;52.496;13.456;2023-08-24T11:38:10;101201.56;;;46.55;16.58
25759;BME280;13604;52.496;13.456;2023-08-24T11:40:36;101189.00;;;46.70;16.50
25759;BME280;13604;52.496;13.456;2023-08-24T11:43:02;101188.81;;;46.26;16.53
25759;BME280;13604;52.496;13.456;2023-08-24T11:45:32;101232.06;;;47.07;16.10
25759;BME280;13604;52.496;13.456;2023-08-24T11:47:59;101182.13;;;46.56;16.54
25759;BME280;13604;52.496;13.456;2023-08-24T11:50:25;101176.94;;;46.43;16.69
25759;BME280;13604;52.496;13.456;2023-08-24T11:52:52;101161.75;;;47.03;16.42
25759;BME280;13604;52.496;13.456;2023-08-24T11:55:18;101165.19;;;45.96;16.55
25759;BME280;13604;52.496;13.456;2023-08-24T11:57:43;101139.56;;;45.95;16.75
25759;BME280;13604;52.496;13.456;2023-08-24T12:00:09;101161.31;;;46.44;17.00
25759;BME280;13604;52.496;13.456;2023-08-24T12:02:39;101155.59;;;46.91;15.65
25759;BME280;13604;52.496;13.456;2023-08-24T12:05:19;101155.88;;;47.77;15.43
25759;BME280;13604;52.496;13.456;2023-08-24T12:07:45;101159.66;;;47.67;15.15
25759;BME280;13604;52.496;13.456;2023-08-24T12:10:12;101167.75;;;45.60;17.39
25759;BME280;13604;52.496;13.456;2023-08-24T12:12:37;101162.78;;;43.55;18.97
25759;BME280;13604;52.496;13.456;2023-08-24T12:15:03;101151.16;;;41.43;20.73
25759;BME280;13604;52.496;13.456;2023-08-24T12:17:28;101152.41;;;40.55;22.54
25759;BME280;13604;52.496;13.456;2023-08-24T12:20:00;101148.63;;;40.93;22.09
25759;BME280;13604;52.496;13.456;2023-08-24T12:22:30;101156.47;;;43.01;20.21
25759;BME280;13604;52.496;13.456;2023-08-24T12:24:56;101130.81;;;44.56;18.48
25759;BME280;13604;52.496;13.456;2023-08-24T12:27:25;101132.41;;;44.59;17.42
25759;BME280;13604;52.496;13.456;2023-08-24T12:29:51;101165.94;;;44.12;18.09
25759;BME280;13604;52.496;13.456;2023-08-24T12:32:17;101122.72;;;41.68;19.50
25759;BME280;13604;52.496;13.456;2023-08-24T12:34:46;101127.13;;;42.59;19.01
25759;BME280;13604;52.496;13.456;2023-08-24T12:37:11;101128.63;;;43.38;18.88
25759;BME280;13604;52.496;13.456;2023-08-24T12:39:38;101120.44;;;44.09;18.77
25759;BME280;13604;52.496;13.456;2023-08-24T12:42:03;101127.78;;;45.08;17.15
25759;BME280;13604;52.496;13.456;2023-08-24T12:44:29;101116.88;;;45.83;16.88
25759;BME280;13604;52.496;13.456;2023-08-24T12:46:54;101109.63;;;47.36;16.97
25759;BME280;13604;52.496;13.456;2023-08-24T12:49:19;101103.28;;;48.29;15.23
25759;BME280;13604;52.496;13.456;2023-08-24T12:51:45;101098.16;;;45.59;16.97
25759;BME280;13604;52.496;13.456;2023-08-24T12:54:11;101097.06;;;46.53;16.72
25759;BME280;13604;52.496;13.456;2023-08-24T12:56:37;101082.09;;;47.18;16.64
25759;BME280;13604;52.496;13.456;2023-08-24T12:59:03;101100.34;;;47.71;14.72